BEL2TH LIRF-EBBR
Flight info
| Callsign | BEL2TH |
|---|---|
| Flight time | 1h 46m |
| Altitude | 36000 |
| Route | SOVAN DCT AMTEL DCT GIKEB DCT UNIMI DCT KPT L608 TEDGO DCT IDOVI Z104 GESLO N852 LNO |
| Aircraft | A20N/M-DE3FGHIJ1LORVWY/HB1G1 |
Departure
| Time | 2026-05-04 13:43 |
|---|---|
| Airport | Rome–Fiumicino Leonardo da Vinci International Airport (LIRF) |
Arrival
| Time | 2026-05-04 15:30 |
|---|---|
| Airport | Brussels Airport (EBBR) |
| Time | Latitude | Longitude | Altitude | Speed | Heading |
|---|---|---|---|---|---|
| 2026-05-04 13:12 | 41.79690 | 12.25616 | 16 ft | 0 kts | 295° |
| 2026-05-04 13:35 | 41.79680 | 12.25643 | 16 ft | 2 kts | 312° |
| 2026-05-04 13:35 | 41.79668 | 12.25657 | 16 ft | 2 kts | 330° |
| 2026-05-04 13:36 | 41.79653 | 12.25664 | 16 ft | 2 kts | 350° |
| 2026-05-04 13:36 | 41.79639 | 12.25664 | 16 ft | 2 kts | 9° |
| 2026-05-04 13:36 | 41.79628 | 12.25661 | 16 ft | 0 kts | 23° |
| 2026-05-04 13:36 | 41.79622 | 12.25656 | 16 ft | 0 kts | 26° |
| 2026-05-04 13:38 | 41.79623 | 12.25657 | 16 ft | 0 kts | 26° |
| 2026-05-04 13:38 | 41.79635 | 12.25665 | 16 ft | 3 kts | 25° |
| 2026-05-04 13:39 | 41.79675 | 12.25690 | 16 ft | 11 kts | 25° |
| 2026-05-04 13:39 | 41.79779 | 12.25755 | 16 ft | 21 kts | 25° |
| 2026-05-04 13:39 | 41.79942 | 12.25866 | 16 ft | 28 kts | 25° |
| 2026-05-04 13:39 | 41.80116 | 12.25975 | 16 ft | 27 kts | 25° |
| 2026-05-04 13:40 | 41.80284 | 12.26080 | 16 ft | 26 kts | 27° |
| 2026-05-04 13:40 | 41.80447 | 12.26173 | 16 ft | 22 kts | 14° |
| 2026-05-04 13:40 | 41.80546 | 12.26309 | 15 ft | 21 kts | 69° |
| 2026-05-04 13:40 | 41.80598 | 12.26501 | 15 ft | 21 kts | 69° |
| 2026-05-04 13:41 | 41.80649 | 12.26689 | 14 ft | 21 kts | 72° |
| 2026-05-04 13:41 | 41.80702 | 12.26876 | 14 ft | 21 kts | 70° |
| 2026-05-04 13:41 | 41.80754 | 12.27036 | 13 ft | 12 kts | 41° |
| 2026-05-04 13:42 | 41.80924 | 12.26984 | 13 ft | 13 kts | 339° |
| 2026-05-04 13:42 | 41.80955 | 12.26928 | 13 ft | 8 kts | 256° |
| 2026-05-04 13:42 | 41.80934 | 12.26843 | 13 ft | 13 kts | 250° |
| 2026-05-04 13:42 | 41.80842 | 12.26510 | 15 ft | 73 kts | 249° |
| 2026-05-04 13:43 | 41.80588 | 12.25590 | 16 ft | 136 kts | 249° |
| 2026-05-04 13:43 | 41.80207 | 12.24188 | 160 ft | 172 kts | 247° |
| 2026-05-04 13:43 | 41.79780 | 12.22669 | 704 ft | 177 kts | 246° |
| 2026-05-04 13:43 | 41.79384 | 12.21164 | 1492 ft | 175 kts | 254° |
| 2026-05-04 13:44 | 41.79255 | 12.19534 | 2117 ft | 183 kts | 270° |
| 2026-05-04 13:44 | 41.79746 | 12.17925 | 2569 ft | 203 kts | 314° |
| 2026-05-04 13:44 | 41.81024 | 12.17039 | 3023 ft | 217 kts | 343° |
| 2026-05-04 13:44 | 41.82577 | 12.16563 | 3373 ft | 239 kts | 348° |
| 2026-05-04 13:45 | 41.84273 | 12.16091 | 3833 ft | 257 kts | 347° |
| 2026-05-04 13:45 | 41.86066 | 12.15529 | 4323 ft | 275 kts | 346° |
| 2026-05-04 13:45 | 41.87942 | 12.14879 | 5026 ft | 283 kts | 345° |
| 2026-05-04 13:45 | 41.89847 | 12.14179 | 5845 ft | 287 kts | 344° |
| 2026-05-04 13:46 | 41.91763 | 12.13452 | 6667 ft | 290 kts | 344° |
| 2026-05-04 13:46 | 41.93702 | 12.12703 | 7508 ft | 293 kts | 343° |
| 2026-05-04 13:46 | 41.95665 | 12.11939 | 8344 ft | 296 kts | 343° |
| 2026-05-04 13:46 | 41.97621 | 12.11171 | 9199 ft | 297 kts | 343° |
| 2026-05-04 13:47 | 41.99608 | 12.10388 | 10050 ft | 299 kts | 342° |
| 2026-05-04 13:47 | 42.01620 | 12.09595 | 10748 ft | 306 kts | 342° |
| 2026-05-04 13:47 | 42.03719 | 12.08762 | 11167 ft | 323 kts | 342° |
| 2026-05-04 13:47 | 42.05914 | 12.07892 | 11577 ft | 340 kts | 341° |
| 2026-05-04 13:48 | 42.08217 | 12.06978 | 12208 ft | 348 kts | 341° |
| 2026-05-04 13:48 | 42.10559 | 12.06051 | 12960 ft | 350 kts | 341° |
| 2026-05-04 13:48 | 42.12905 | 12.05124 | 13700 ft | 353 kts | 341° |
| 2026-05-04 13:48 | 42.15276 | 12.04188 | 14429 ft | 357 kts | 341° |
| 2026-05-04 13:49 | 42.17650 | 12.03248 | 15145 ft | 360 kts | 340° |
| 2026-05-04 13:49 | 42.20060 | 12.02290 | 15858 ft | 362 kts | 341° |
| 2026-05-04 13:49 | 42.22458 | 12.01333 | 16525 ft | 365 kts | 341° |
| 2026-05-04 13:49 | 42.24900 | 12.00358 | 17206 ft | 367 kts | 341° |
| 2026-05-04 13:50 | 42.27348 | 11.99381 | 17845 ft | 370 kts | 341° |
| 2026-05-04 13:50 | 42.29810 | 11.98397 | 18505 ft | 372 kts | 341° |
| 2026-05-04 13:50 | 42.32304 | 11.97400 | 19123 ft | 375 kts | 341° |
| 2026-05-04 13:50 | 42.34803 | 11.96400 | 19708 ft | 378 kts | 341° |
| 2026-05-04 13:51 | 42.37326 | 11.95388 | 20299 ft | 381 kts | 341° |
| 2026-05-04 13:51 | 42.39879 | 11.94364 | 20899 ft | 383 kts | 341° |
| 2026-05-04 13:51 | 42.42421 | 11.93344 | 21463 ft | 386 kts | 341° |
| 2026-05-04 13:51 | 42.44996 | 11.92310 | 22015 ft | 389 kts | 341° |
| 2026-05-04 13:52 | 42.50225 | 11.90206 | 23090 ft | 395 kts | 341° |
| 2026-05-04 13:52 | 42.52876 | 11.89139 | 23620 ft | 398 kts | 341° |
| 2026-05-04 13:52 | 42.55519 | 11.88076 | 24139 ft | 400 kts | 341° |
| 2026-05-04 13:53 | 42.58193 | 11.86998 | 24661 ft | 402 kts | 340° |
| 2026-05-04 13:53 | 42.60876 | 11.85917 | 25171 ft | 404 kts | 340° |
| 2026-05-04 13:53 | 42.63586 | 11.84821 | 25655 ft | 406 kts | 340° |
| 2026-05-04 13:54 | 42.69047 | 11.82609 | 26574 ft | 410 kts | 340° |
| 2026-05-04 13:54 | 42.71763 | 11.81509 | 27026 ft | 412 kts | 340° |
| 2026-05-04 13:54 | 42.77304 | 11.79255 | 27860 ft | 416 kts | 339° |
| 2026-05-04 13:55 | 42.80077 | 11.78128 | 28249 ft | 418 kts | 339° |
| 2026-05-04 13:55 | 42.85679 | 11.75845 | 29015 ft | 421 kts | 339° |
| 2026-05-04 13:55 | 42.88484 | 11.74700 | 29375 ft | 423 kts | 339° |
| 2026-05-04 13:56 | 42.91322 | 11.73540 | 29711 ft | 426 kts | 339° |
| 2026-05-04 13:56 | 42.94134 | 11.72389 | 30136 ft | 425 kts | 339° |
| 2026-05-04 13:56 | 42.99772 | 11.70084 | 31153 ft | 421 kts | 339° |
| 2026-05-04 13:57 | 43.02580 | 11.68933 | 31640 ft | 418 kts | 338° |
| 2026-05-04 13:57 | 43.05347 | 11.67793 | 32067 ft | 417 kts | 338° |
| 2026-05-04 13:58 | 43.13692 | 11.64361 | 33249 ft | 414 kts | 338° |
| 2026-05-04 13:58 | 43.19293 | 11.62391 | 33944 ft | 417 kts | 343° |
| 2026-05-04 13:58 | 43.22172 | 11.61710 | 34269 ft | 418 kts | 346° |
| 2026-05-04 13:59 | 43.25061 | 11.61250 | 34616 ft | 420 kts | 349° |
| 2026-05-04 13:59 | 43.28001 | 11.61009 | 34953 ft | 421 kts | 352° |
| 2026-05-04 13:59 | 43.33834 | 11.60973 | 35612 ft | 420 kts | 354° |
| 2026-05-04 14:00 | 43.36766 | 11.60990 | 35893 ft | 420 kts | 354° |
| 2026-05-04 14:00 | 43.42593 | 11.61026 | 36421 ft | 418 kts | 354° |
| 2026-05-04 14:00 | 43.45525 | 11.61041 | 36684 ft | 417 kts | 354° |
| 2026-05-04 14:01 | 43.48413 | 11.61053 | 36923 ft | 417 kts | 354° |
| 2026-05-04 14:01 | 43.51332 | 11.61065 | 37159 ft | 416 kts | 354° |
| 2026-05-04 14:01 | 43.57141 | 11.61087 | 37538 ft | 417 kts | 354° |
| 2026-05-04 14:02 | 43.60011 | 11.61099 | 37675 ft | 418 kts | 354° |
| 2026-05-04 14:02 | 43.62938 | 11.61109 | 37798 ft | 419 kts | 355° |
| 2026-05-04 14:02 | 43.65851 | 11.61123 | 37934 ft | 419 kts | 354° |
| 2026-05-04 14:02 | 43.68767 | 11.61135 | 38075 ft | 420 kts | 355° |
| 2026-05-04 14:03 | 43.71662 | 11.61146 | 38073 ft | 421 kts | 355° |
| 2026-05-04 14:03 | 43.77558 | 11.61168 | 38082 ft | 422 kts | 355° |
| 2026-05-04 14:04 | 43.86380 | 11.61204 | 38083 ft | 423 kts | 355° |
| 2026-05-04 14:04 | 43.92218 | 11.61230 | 38086 ft | 423 kts | 355° |
| 2026-05-04 14:05 | 44.01075 | 11.61264 | 38091 ft | 423 kts | 355° |
| 2026-05-04 14:06 | 44.06927 | 11.61286 | 38085 ft | 423 kts | 355° |
| 2026-05-04 14:06 | 44.12831 | 11.61311 | 38081 ft | 424 kts | 355° |
| 2026-05-04 14:07 | 44.18735 | 11.61337 | 38080 ft | 425 kts | 356° |
| 2026-05-04 14:07 | 44.24651 | 11.61364 | 38068 ft | 425 kts | 356° |
| 2026-05-04 14:08 | 44.30567 | 11.61387 | 38061 ft | 425 kts | 356° |
| 2026-05-04 14:08 | 44.36484 | 11.61410 | 38055 ft | 425 kts | 356° |
| 2026-05-04 14:09 | 44.45320 | 11.61448 | 37917 ft | 424 kts | 356° |
| 2026-05-04 14:10 | 44.54204 | 11.61484 | 38036 ft | 427 kts | 356° |
| 2026-05-04 14:10 | 44.60166 | 11.61507 | 38033 ft | 428 kts | 356° |
| 2026-05-04 14:11 | 44.66108 | 11.61531 | 38035 ft | 428 kts | 356° |
| 2026-05-04 14:11 | 44.75009 | 11.61570 | 38036 ft | 428 kts | 356° |
| 2026-05-04 14:12 | 44.80953 | 11.61594 | 38031 ft | 428 kts | 356° |
| 2026-05-04 14:13 | 44.89874 | 11.61630 | 38026 ft | 429 kts | 356° |
| 2026-05-04 14:13 | 44.95855 | 11.61655 | 38026 ft | 429 kts | 356° |
| 2026-05-04 14:14 | 45.01797 | 11.61680 | 38026 ft | 429 kts | 356° |
| 2026-05-04 14:14 | 45.10773 | 11.61718 | 38023 ft | 430 kts | 356° |
| 2026-05-04 14:15 | 45.22753 | 11.61773 | 38023 ft | 430 kts | 356° |
| 2026-05-04 14:16 | 45.31755 | 11.61809 | 38027 ft | 431 kts | 356° |
| 2026-05-04 14:17 | 45.40751 | 11.61845 | 38027 ft | 432 kts | 357° |
| 2026-05-04 14:18 | 45.49793 | 11.61884 | 38025 ft | 432 kts | 357° |
| 2026-05-04 14:19 | 45.61810 | 11.61932 | 38031 ft | 433 kts | 357° |
| 2026-05-04 14:19 | 45.67802 | 11.61956 | 38032 ft | 433 kts | 357° |
| 2026-05-04 14:20 | 45.73832 | 11.61981 | 38038 ft | 433 kts | 357° |
| 2026-05-04 14:20 | 45.79836 | 11.62007 | 38049 ft | 433 kts | 357° |
| 2026-05-04 14:21 | 45.88907 | 11.62044 | 38070 ft | 433 kts | 357° |
| 2026-05-04 14:21 | 45.94945 | 11.62056 | 38071 ft | 434 kts | 357° |
| 2026-05-04 14:22 | 46.00962 | 11.62062 | 38076 ft | 434 kts | 357° |
| 2026-05-04 14:22 | 46.06999 | 11.62089 | 38084 ft | 435 kts | 357° |
| 2026-05-04 14:23 | 46.15918 | 11.61226 | 38087 ft | 430 kts | 346° |
| 2026-05-04 14:24 | 46.21601 | 11.58919 | 38098 ft | 425 kts | 336° |
| 2026-05-04 14:24 | 46.26923 | 11.55268 | 38105 ft | 422 kts | 328° |
| 2026-05-04 14:25 | 46.32040 | 11.51099 | 38104 ft | 422 kts | 327° |
| 2026-05-04 14:25 | 46.39684 | 11.44842 | 38106 ft | 423 kts | 327° |
| 2026-05-04 14:26 | 46.44802 | 11.40661 | 38088 ft | 423 kts | 328° |
| 2026-05-04 14:26 | 46.49945 | 11.36453 | 38061 ft | 424 kts | 327° |
| 2026-05-04 14:27 | 46.55067 | 11.32238 | 38059 ft | 424 kts | 327° |
| 2026-05-04 14:27 | 46.60211 | 11.27989 | 38077 ft | 424 kts | 327° |
| 2026-05-04 14:28 | 46.65325 | 11.23772 | 38106 ft | 425 kts | 327° |
| 2026-05-04 14:28 | 46.70447 | 11.19543 | 38133 ft | 425 kts | 327° |
| 2026-05-04 14:29 | 46.80718 | 11.11028 | 38141 ft | 425 kts | 327° |
| 2026-05-04 14:30 | 46.85847 | 11.06767 | 38141 ft | 425 kts | 327° |
| 2026-05-04 14:31 | 46.93628 | 11.00577 | 38152 ft | 426 kts | 328° |
| 2026-05-04 14:32 | 47.04056 | 10.92294 | 38157 ft | 427 kts | 328° |
| 2026-05-04 14:32 | 47.09263 | 10.88129 | 38142 ft | 427 kts | 328° |
| 2026-05-04 14:33 | 47.14404 | 10.84026 | 38131 ft | 428 kts | 328° |
| 2026-05-04 14:33 | 47.19659 | 10.79820 | 38108 ft | 428 kts | 328° |
| 2026-05-04 14:34 | 47.24859 | 10.75637 | 38090 ft | 427 kts | 328° |
| 2026-05-04 14:34 | 47.30058 | 10.71442 | 38074 ft | 427 kts | 328° |
| 2026-05-04 14:35 | 47.35276 | 10.67219 | 38068 ft | 427 kts | 328° |
| 2026-05-04 14:35 | 47.40470 | 10.63006 | 38074 ft | 427 kts | 328° |
| 2026-05-04 14:36 | 47.45640 | 10.58800 | 38066 ft | 428 kts | 328° |
| 2026-05-04 14:36 | 47.50864 | 10.54540 | 38051 ft | 428 kts | 328° |
| 2026-05-04 14:37 | 47.56064 | 10.50287 | 38035 ft | 428 kts | 328° |
| 2026-05-04 14:37 | 47.61236 | 10.46046 | 38024 ft | 428 kts | 327° |
| 2026-05-04 14:38 | 47.66427 | 10.41774 | 38023 ft | 428 kts | 328° |
| 2026-05-04 14:38 | 47.71624 | 10.37476 | 38008 ft | 428 kts | 326° |
| 2026-05-04 14:39 | 47.76589 | 10.32601 | 37991 ft | 424 kts | 319° |
| 2026-05-04 14:39 | 47.81162 | 10.27122 | 37984 ft | 423 kts | 316° |
| 2026-05-04 14:40 | 47.87964 | 10.18774 | 37974 ft | 424 kts | 316° |
| 2026-05-04 14:40 | 47.92521 | 10.13186 | 37974 ft | 424 kts | 316° |
| 2026-05-04 14:41 | 47.97067 | 10.07604 | 37977 ft | 424 kts | 316° |
| 2026-05-04 14:42 | 48.06169 | 9.96396 | 37961 ft | 424 kts | 316° |
| 2026-05-04 14:42 | 48.10676 | 9.90826 | 37951 ft | 425 kts | 316° |
| 2026-05-04 14:43 | 48.15251 | 9.85194 | 37957 ft | 425 kts | 316° |
| 2026-05-04 14:43 | 48.19811 | 9.79547 | 37942 ft | 424 kts | 316° |
| 2026-05-04 14:44 | 48.24350 | 9.73891 | 37933 ft | 424 kts | 316° |
| 2026-05-04 14:44 | 48.28857 | 9.68252 | 37940 ft | 425 kts | 316° |
| 2026-05-04 14:45 | 48.33396 | 9.62570 | 37933 ft | 425 kts | 316° |
| 2026-05-04 14:45 | 48.37915 | 9.56852 | 37946 ft | 425 kts | 316° |
| 2026-05-04 14:46 | 48.42434 | 9.51070 | 37942 ft | 425 kts | 316° |
| 2026-05-04 14:46 | 48.46919 | 9.45309 | 37941 ft | 425 kts | 316° |
| 2026-05-04 14:47 | 48.51388 | 9.39552 | 37941 ft | 424 kts | 315° |
| 2026-05-04 14:47 | 48.55856 | 9.33772 | 37937 ft | 424 kts | 315° |
| 2026-05-04 14:48 | 48.60368 | 9.27907 | 37936 ft | 423 kts | 315° |
| 2026-05-04 14:48 | 48.64846 | 9.22115 | 37941 ft | 424 kts | 315° |
| 2026-05-04 14:49 | 48.69324 | 9.16324 | 37941 ft | 424 kts | 315° |
| 2026-05-04 14:49 | 48.73801 | 9.10509 | 37939 ft | 425 kts | 315° |
| 2026-05-04 14:50 | 48.78280 | 9.04671 | 37937 ft | 425 kts | 315° |
| 2026-05-04 14:50 | 48.82752 | 8.98824 | 37935 ft | 425 kts | 315° |
| 2026-05-04 14:51 | 48.85004 | 8.95875 | 37622 ft | 426 kts | 315° |
| 2026-05-04 14:51 | 48.87230 | 8.92955 | 37320 ft | 426 kts | 315° |
| 2026-05-04 14:51 | 48.89436 | 8.90059 | 37022 ft | 426 kts | 315° |
| 2026-05-04 14:51 | 48.91679 | 8.87113 | 36726 ft | 426 kts | 314° |
| 2026-05-04 14:52 | 48.93935 | 8.84148 | 36479 ft | 427 kts | 314° |
| 2026-05-04 14:52 | 48.96172 | 8.81198 | 36249 ft | 426 kts | 314° |
| 2026-05-04 14:52 | 48.98375 | 8.78292 | 36020 ft | 427 kts | 314° |
| 2026-05-04 14:52 | 49.00659 | 8.75272 | 35790 ft | 427 kts | 314° |
| 2026-05-04 14:53 | 49.02920 | 8.72281 | 35564 ft | 428 kts | 314° |
| 2026-05-04 14:53 | 49.05162 | 8.69311 | 35341 ft | 428 kts | 314° |
| 2026-05-04 14:53 | 49.07410 | 8.66328 | 35108 ft | 429 kts | 314° |
| 2026-05-04 14:53 | 49.09650 | 8.63354 | 34883 ft | 428 kts | 314° |
| 2026-05-04 14:54 | 49.11659 | 8.60693 | 34665 ft | 428 kts | 314° |
| 2026-05-04 14:54 | 49.13806 | 8.57476 | 34391 ft | 423 kts | 305° |
| 2026-05-04 14:54 | 49.15540 | 8.53900 | 34138 ft | 417 kts | 299° |
| 2026-05-04 14:54 | 49.17101 | 8.50205 | 33875 ft | 410 kts | 297° |
| 2026-05-04 14:55 | 49.18613 | 8.46537 | 33605 ft | 409 kts | 297° |
| 2026-05-04 14:55 | 49.20118 | 8.42868 | 33340 ft | 410 kts | 297° |
| 2026-05-04 14:55 | 49.21639 | 8.39163 | 33069 ft | 411 kts | 297° |
| 2026-05-04 14:55 | 49.23162 | 8.35455 | 32803 ft | 412 kts | 297° |
| 2026-05-04 14:56 | 49.24687 | 8.31744 | 32536 ft | 413 kts | 296° |
| 2026-05-04 14:56 | 49.26212 | 8.28029 | 32268 ft | 414 kts | 297° |
| 2026-05-04 14:56 | 49.27755 | 8.24265 | 32007 ft | 414 kts | 297° |
| 2026-05-04 14:56 | 49.29283 | 8.20539 | 31962 ft | 415 kts | 297° |
| 2026-05-04 14:57 | 49.32350 | 8.13052 | 31949 ft | 416 kts | 297° |
| 2026-05-04 14:57 | 49.35421 | 8.05547 | 31947 ft | 415 kts | 296° |
| 2026-05-04 14:58 | 49.38469 | 7.98070 | 31951 ft | 415 kts | 296° |
| 2026-05-04 14:58 | 49.41532 | 7.90538 | 31953 ft | 415 kts | 296° |
| 2026-05-04 14:59 | 49.44581 | 7.83014 | 31955 ft | 416 kts | 296° |
| 2026-05-04 15:00 | 49.49139 | 7.71736 | 31958 ft | 416 kts | 296° |
| 2026-05-04 15:00 | 49.52181 | 7.64182 | 31962 ft | 416 kts | 296° |
| 2026-05-04 15:01 | 49.56741 | 7.52821 | 31970 ft | 416 kts | 296° |
| 2026-05-04 15:01 | 49.59771 | 7.45242 | 31975 ft | 416 kts | 296° |
| 2026-05-04 15:02 | 49.62791 | 7.37663 | 31981 ft | 416 kts | 296° |
| 2026-05-04 15:02 | 49.64256 | 7.33983 | 31860 ft | 412 kts | 295° |
| 2026-05-04 15:02 | 49.65758 | 7.30195 | 31300 ft | 411 kts | 295° |
| 2026-05-04 15:03 | 49.67245 | 7.26429 | 30447 ft | 415 kts | 295° |
| 2026-05-04 15:03 | 49.68743 | 7.22629 | 29563 ft | 420 kts | 295° |
| 2026-05-04 15:03 | 49.70241 | 7.18828 | 29026 ft | 420 kts | 295° |
| 2026-05-04 15:03 | 49.71769 | 7.14955 | 28610 ft | 423 kts | 296° |
| 2026-05-04 15:04 | 49.73291 | 7.11096 | 28204 ft | 421 kts | 296° |
| 2026-05-04 15:04 | 49.74816 | 7.07225 | 27792 ft | 419 kts | 296° |
| 2026-05-04 15:04 | 49.76323 | 7.03396 | 27385 ft | 417 kts | 296° |
| 2026-05-04 15:04 | 49.77810 | 6.99608 | 26980 ft | 415 kts | 296° |
| 2026-05-04 15:05 | 49.79303 | 6.95801 | 26572 ft | 413 kts | 296° |
| 2026-05-04 15:05 | 49.80795 | 6.91987 | 26163 ft | 411 kts | 296° |
| 2026-05-04 15:05 | 49.82250 | 6.88261 | 25761 ft | 408 kts | 296° |
| 2026-05-04 15:05 | 49.83731 | 6.84465 | 25353 ft | 406 kts | 296° |
| 2026-05-04 15:06 | 49.85173 | 6.80762 | 24954 ft | 404 kts | 296° |
| 2026-05-04 15:06 | 49.86614 | 6.77057 | 24556 ft | 401 kts | 296° |
| 2026-05-04 15:06 | 49.88055 | 6.73346 | 24157 ft | 399 kts | 297° |
| 2026-05-04 15:07 | 49.91332 | 6.66499 | 23277 ft | 401 kts | 313° |
| 2026-05-04 15:07 | 49.93436 | 6.63667 | 22781 ft | 399 kts | 316° |
| 2026-05-04 15:07 | 49.95559 | 6.60895 | 22255 ft | 397 kts | 316° |
| 2026-05-04 15:07 | 49.97649 | 6.58116 | 21746 ft | 394 kts | 315° |
| 2026-05-04 15:08 | 49.99680 | 6.55360 | 21246 ft | 391 kts | 315° |
| 2026-05-04 15:08 | 50.01725 | 6.52540 | 20729 ft | 388 kts | 315° |
| 2026-05-04 15:08 | 50.03714 | 6.49767 | 20228 ft | 386 kts | 315° |
| 2026-05-04 15:08 | 50.05692 | 6.46990 | 19737 ft | 383 kts | 315° |
| 2026-05-04 15:09 | 50.07668 | 6.44204 | 19237 ft | 380 kts | 315° |
| 2026-05-04 15:09 | 50.09604 | 6.41469 | 18820 ft | 376 kts | 315° |
| 2026-05-04 15:09 | 50.11426 | 6.38896 | 18594 ft | 376 kts | 315° |
| 2026-05-04 15:10 | 50.15372 | 6.33331 | 18092 ft | 375 kts | 315° |
| 2026-05-04 15:10 | 50.17249 | 6.30661 | 17857 ft | 374 kts | 315° |
| 2026-05-04 15:10 | 50.21122 | 6.25139 | 17358 ft | 372 kts | 315° |
| 2026-05-04 15:11 | 50.22994 | 6.22468 | 17108 ft | 371 kts | 315° |
| 2026-05-04 15:11 | 50.24891 | 6.19756 | 16865 ft | 370 kts | 315° |
| 2026-05-04 15:11 | 50.26792 | 6.17035 | 16621 ft | 369 kts | 315° |
| 2026-05-04 15:11 | 50.28685 | 6.14324 | 16367 ft | 367 kts | 315° |
| 2026-05-04 15:12 | 50.30560 | 6.11636 | 16132 ft | 367 kts | 315° |
| 2026-05-04 15:12 | 50.32445 | 6.08927 | 15875 ft | 366 kts | 315° |
| 2026-05-04 15:12 | 50.34306 | 6.06250 | 15629 ft | 365 kts | 315° |
| 2026-05-04 15:12 | 50.36193 | 6.03534 | 15374 ft | 365 kts | 316° |
| 2026-05-04 15:13 | 50.38043 | 6.00869 | 15131 ft | 364 kts | 316° |
| 2026-05-04 15:13 | 50.39898 | 5.98193 | 14882 ft | 363 kts | 316° |
| 2026-05-04 15:13 | 50.41777 | 5.95478 | 14633 ft | 362 kts | 316° |
| 2026-05-04 15:13 | 50.43649 | 5.92769 | 14387 ft | 381 kts | 316° |
| 2026-05-04 15:14 | 50.45715 | 5.89780 | 14000 ft | 406 kts | 316° |
| 2026-05-04 15:14 | 50.47789 | 5.86777 | 13504 ft | 408 kts | 316° |
| 2026-05-04 15:14 | 50.49891 | 5.83727 | 12992 ft | 406 kts | 316° |
| 2026-05-04 15:14 | 50.51962 | 5.80716 | 12487 ft | 403 kts | 316° |
| 2026-05-04 15:15 | 50.54002 | 5.77747 | 12110 ft | 402 kts | 316° |
| 2026-05-04 15:15 | 50.56034 | 5.74777 | 11734 ft | 400 kts | 314° |
| 2026-05-04 15:15 | 50.57853 | 5.71518 | 11330 ft | 389 kts | 307° |
| 2026-05-04 15:16 | 50.61002 | 5.64887 | 10582 ft | 370 kts | 306° |
| 2026-05-04 15:16 | 50.62524 | 5.61669 | 10202 ft | 362 kts | 306° |
| 2026-05-04 15:16 | 50.65495 | 5.55460 | 9621 ft | 343 kts | 308° |
| 2026-05-04 15:17 | 50.66924 | 5.52513 | 9370 ft | 333 kts | 308° |
| 2026-05-04 15:17 | 50.69707 | 5.46776 | 8860 ft | 316 kts | 308° |
| 2026-05-04 15:17 | 50.71018 | 5.44070 | 8611 ft | 308 kts | 308° |
| 2026-05-04 15:18 | 50.72301 | 5.41416 | 8360 ft | 300 kts | 308° |
| 2026-05-04 15:18 | 50.73562 | 5.38814 | 8108 ft | 293 kts | 308° |
| 2026-05-04 15:18 | 50.74788 | 5.36281 | 7858 ft | 287 kts | 308° |
| 2026-05-04 15:19 | 50.77086 | 5.31504 | 7371 ft | 275 kts | 307° |
| 2026-05-04 15:19 | 50.78239 | 5.29102 | 7118 ft | 269 kts | 307° |
| 2026-05-04 15:19 | 50.80509 | 5.24374 | 6621 ft | 269 kts | 307° |
| 2026-05-04 15:20 | 50.81621 | 5.22060 | 6372 ft | 267 kts | 307° |
| 2026-05-04 15:20 | 50.82753 | 5.19704 | 6126 ft | 266 kts | 307° |
| 2026-05-04 15:20 | 50.83860 | 5.17396 | 6038 ft | 265 kts | 307° |
| 2026-05-04 15:20 | 50.84982 | 5.15059 | 5957 ft | 266 kts | 307° |
| 2026-05-04 15:21 | 50.86084 | 5.12762 | 5773 ft | 264 kts | 307° |
| 2026-05-04 15:21 | 50.87197 | 5.10438 | 5597 ft | 263 kts | 307° |
| 2026-05-04 15:21 | 50.89345 | 5.05949 | 5249 ft | 250 kts | 306° |
| 2026-05-04 15:22 | 50.90389 | 5.03760 | 5048 ft | 243 kts | 306° |
| 2026-05-04 15:22 | 50.91401 | 5.01636 | 4875 ft | 243 kts | 307° |
| 2026-05-04 15:22 | 50.93431 | 4.97373 | 4525 ft | 241 kts | 307° |
| 2026-05-04 15:23 | 50.94435 | 4.95265 | 4354 ft | 241 kts | 307° |
| 2026-05-04 15:23 | 50.95437 | 4.93157 | 4121 ft | 240 kts | 305° |
| 2026-05-04 15:23 | 50.96222 | 4.90834 | 3859 ft | 239 kts | 290° |
| 2026-05-04 15:23 | 50.96713 | 4.88307 | 3600 ft | 238 kts | 284° |
| 2026-05-04 15:24 | 50.96922 | 4.83183 | 3085 ft | 231 kts | 256° |
| 2026-05-04 15:24 | 50.95979 | 4.78438 | 2591 ft | 224 kts | 249° |
| 2026-05-04 15:25 | 50.95445 | 4.76134 | 2385 ft | 219 kts | 249° |
| 2026-05-04 15:25 | 50.94923 | 4.73924 | 2230 ft | 211 kts | 248° |
| 2026-05-04 15:25 | 50.94414 | 4.71766 | 2158 ft | 198 kts | 249° |
| 2026-05-04 15:26 | 50.93517 | 4.67931 | 1911 ft | 174 kts | 248° |
| 2026-05-04 15:26 | 50.93116 | 4.66213 | 1761 ft | 159 kts | 249° |
| 2026-05-04 15:26 | 50.92385 | 4.63073 | 1521 ft | 151 kts | 248° |
| 2026-05-04 15:27 | 50.92019 | 4.61500 | 1393 ft | 152 kts | 248° |
| 2026-05-04 15:27 | 50.91314 | 4.58457 | 994 ft | 140 kts | 249° |
| 2026-05-04 15:28 | 50.90643 | 4.55574 | 630 ft | 139 kts | 250° |
| 2026-05-04 15:28 | 50.90297 | 4.54129 | 454 ft | 139 kts | 250° |
| 2026-05-04 15:28 | 50.89659 | 4.51312 | 192 ft | 124 kts | 251° |
| 2026-05-04 15:29 | 50.89422 | 4.50282 | 192 ft | 74 kts | 250° |
| 2026-05-04 15:30 | 50.89202 | 4.49041 | 192 ft | 8 kts | 14° |
| 2026-05-04 15:30 | 50.89444 | 4.49140 | 192 ft | 15 kts | 14° |
| 2026-05-04 15:31 | 50.89649 | 4.49148 | 192 ft | 14 kts | 5° |
| 2026-05-04 15:31 | 50.89754 | 4.49190 | 192 ft | 16 kts | 15° |
| 2026-05-04 15:32 | 50.90166 | 4.49357 | 192 ft | 20 kts | 15° |
| 2026-05-04 15:32 | 50.90382 | 4.49324 | 192 ft | 14 kts | 338° |
| 2026-05-04 15:33 | 50.90573 | 4.49189 | 192 ft | 15 kts | 336° |
| 2026-05-04 15:34 | 50.90582 | 4.48853 | 192 ft | 13 kts | 246° |
| 2026-05-04 15:34 | 50.90544 | 4.48739 | 192 ft | 6 kts | 200° |
| 2026-05-04 15:34 | 50.90464 | 4.48787 | 192 ft | 0 kts | 156° |
| 2026-05-04 15:35 | 50.90463 | 4.48787 | 192 ft | 0 kts | 156° |